Time;durP1;ratioP1;P1;durP2;ratioP2;P2;SDS_P1;SDS_P2;PMS_P1;PMS_P2;Temp;Humidity;BMP_temperature;BMP_pressure;BME280_temperature;BME280_humidity;BME280_pressure;Samples;Min_cycle;Max_cycle;Signal;HPM_P1;HPM_P2
2022/01/19 00:01:52;;;;;;;288.40;81.93;;;5.90;99.90;;;;;;6233910;23;20408;-80
2022/01/19 00:04:21;;;;;;;581.17;160.03;;;5.80;99.90;;;;;;6222539;23;20414;-80
2022/01/19 00:06:50;;;;;;;305.97;69.30;;;5.90;99.90;;;;;;6221736;23;20521;-80
2022/01/19 00:09:19;;;;;;;419.07;142.30;;;5.90;99.90;;;;;;6222122;23;20443;-81
2022/01/19 00:11:47;;;;;;;298.67;88.33;;;5.90;99.90;;;;;;6222337;23;20481;-80
2022/01/19 00:14:16;;;;;;;575.13;177.17;;;5.90;99.90;;;;;;6224423;23;20422;-80
2022/01/19 00:16:48;;;;;;;262.43;73.83;;;5.80;99.90;;;;;;6224430;23;20423;-80
2022/01/19 00:19:41;;;;;;;1341.10;342.90;;;5.80;99.90;;;;;;6209578;23;20469;-80
2022/01/19 00:22:17;;;;;;;934.13;209.73;;;5.80;99.90;;;;;;6222352;23;20442;-80
2022/01/19 00:24:45;;;;;;;593.00;160.17;;;5.80;99.90;;;;;;6221416;23;20423;-80
2022/01/19 00:27:14;;;;;;;943.77;250.63;;;5.80;99.90;;;;;;6221674;23;20458;-81
2022/01/19 00:29:58;;;;;;;280.90;65.97;;;5.80;99.90;;;;;;6221658;23;20411;-81
2022/01/19 00:32:30;;;;;;;1139.77;304.23;;;5.80;99.90;;;;;;6222328;23;20438;-80
2022/01/19 00:35:34;;;;;;;629.13;134.53;;;5.80;99.90;;;;;;6222344;23;20445;-81
2022/01/19 00:41:45;;;;;;;1647.63;394.90;;;5.70;99.90;;;;;;6041050;23;20432;-81
2022/01/19 00:44:43;;;;;;;;;;;;;;;;;;;;;
2022/01/19 00:47:15;;;;;;;1550.63;408.27;;;5.70;99.90;;;;;;6131327;23;20935;-81
2022/01/19 00:49:53;;;;;;;;;;;;;;;;;;;;;
2022/01/19 00:52:35;;;;;;;1167.37;300.90;;;5.70;99.90;;;;;;6102695;23;20460;-81
2022/01/19 00:55:43;;;;;;;;;;;;;;;;;;;;;
2022/01/19 00:58:21;;;;;;;1644.47;436.53;;;5.70;99.90;;;;;;6179276;23;20796;-82
2022/01/19 01:01:09;;;;;;;1143.33;295.03;;;5.70;99.90;;;;;;6222470;23;20430;-81
2022/01/19 01:03:40;;;;;;;1280.17;327.77;;;5.70;99.90;;;;;;6223109;23;20406;-80
2022/01/19 01:06:17;;;;;;;317.47;47.77;;;5.70;99.90;;;;;;6221202;23;20442;-82
2022/01/19 01:09:03;;;;;;;502.93;88.70;;;5.70;99.90;;;;;;6222882;23;20403;-81
2022/01/19 01:11:47;;;;;;;1319.63;305.67;;;5.70;99.90;;;;;;6222796;23;20410;-81
2022/01/19 01:17:13;;;;;;;1189.70;319.43;;;5.80;99.90;;;;;;6222609;23;20443;-80
2022/01/19 01:19:42;;;;;;;633.23;186.77;;;5.80;99.90;;;;;;6221976;23;20469;-80
2022/01/19 01:22:10;;;;;;;416.43;105.60;;;5.80;99.90;;;;;;6222348;23;20947;-80
2022/01/19 01:24:38;;;;;;;662.70;162.77;;;5.80;99.90;;;;;;6233041;23;20399;-80
2022/01/19 01:27:08;;;;;;;314.03;70.43;;;5.80;99.90;;;;;;6221947;23;20525;-80
2022/01/19 01:29:38;;;;;;;496.33;110.97;;;5.80;99.90;;;;;;6222444;23;20419;-81
2022/01/19 01:32:07;;;;;;;430.07;91.00;;;5.80;99.90;;;;;;6222168;23;20485;-81
2022/01/19 01:34:37;;;;;;;185.47;88.53;;;5.80;99.90;;;;;;6223457;23;20413;-80
2022/01/19 01:37:05;;;;;;;398.37;74.70;;;5.80;99.90;;;;;;6222276;23;20477;-81
2022/01/19 01:39:36;;;;;;;327.00;81.23;;;5.80;99.90;;;;;;6221776;23;20439;-80
2022/01/19 01:45:54;;;;;;;1910.63;529.20;;;5.80;99.90;;;;;;6098402;23;20438;-79
2022/01/19 01:48:41;;;;;;;1425.70;397.57;;;5.70;99.90;;;;;;6223513;23;20410;-79
2022/01/19 01:54:10;;;;;;;1684.70;429.37;;;5.80;99.90;;;;;;6223845;23;20411;-79
2022/01/19 01:56:41;;;;;;;325.60;83.17;;;5.80;99.90;;;;;;6223666;23;20910;-80
2022/01/19 01:59:24;;;;;;;338.20;61.50;;;5.80;99.90;;;;;;6223335;23;20410;-79
2022/01/19 02:02:17;;;;;;;1177.73;323.13;;;5.80;99.90;;;;;;6194456;23;20406;-79
2022/01/19 02:05:08;;;;;;;348.63;58.10;;;5.80;99.90;;;;;;6225544;23;20414;-79
2022/01/19 02:23:50;;;;;;;1585.47;390.93;;;5.90;99.90;;;;;;6135438;23;20420;-79
2022/01/19 02:26:25;;;;;;;528.03;145.17;;;5.80;99.90;;;;;;6111175;23;20456;-80
2022/01/19 02:29:02;;;;;;;316.77;97.60;;;5.80;99.90;;;;;;6167826;23;20418;-79
2022/01/19 02:40:14;;;;;;;1380.40;384.87;;;5.80;99.90;;;;;;6213825;23;20462;-80
2022/01/19 02:42:56;;;;;;;1137.73;324.57;;;5.70;99.90;;;;;;6226907;23;20418;-79
2022/01/19 02:50:56;;;;;;;609.60;187.07;;;5.70;99.90;;;;;;6225499;23;20882;-79
2022/01/19 02:53:26;;;;;;;407.53;77.33;;;5.70;99.90;;;;;;6224859;23;20513;-79
2022/01/19 02:55:54;;;;;;;364.50;69.17;;;5.70;99.90;;;;;;6225164;23;20450;-79
2022/01/19 02:58:24;;;;;;;520.07;135.70;;;5.70;99.90;;;;;;6225602;23;20421;-79
2022/01/19 03:09:20;;;;;;;1090.93;281.43;;;5.70;99.90;;;;;;6224926;23;20893;-80
2022/01/19 03:11:48;;;;;;;250.87;73.63;;;5.70;99.90;;;;;;6225601;23;20469;-79
2022/01/19 03:14:17;;;;;;;467.63;112.63;;;5.70;99.90;;;;;;6225926;23;20426;-80
2022/01/19 03:16:46;;;;;;;508.80;126.53;;;5.70;99.90;;;;;;6224988;23;20940;-79
2022/01/19 03:19:16;;;;;;;799.03;184.50;;;5.70;99.90;;;;;;6225240;23;20445;-79
2022/01/19 03:21:48;;;;;;;243.10;61.37;;;5.70;99.90;;;;;;6225626;23;20441;-79
2022/01/19 03:24:22;;;;;;;230.33;64.60;;;5.60;99.90;;;;;;6224438;23;20406;-80
2022/01/19 03:31:18;;;;;;;1999.90;688.37;;;5.60;99.90;;;;;;5999027;24;20429;-79
2022/01/19 03:33:50;;;;;;;1543.63;418.23;;;5.60;99.90;;;;;;6085383;23;20410;-79
2022/01/19 03:40:07;;;;;;;1999.90;474.77;;;5.50;99.90;;;;;;5912708;24;20446;-80
2022/01/19 03:42:37;;;;;;;1849.37;436.20;;;5.50;99.90;;;;;;5977068;24;20458;-79
2022/01/19 03:45:08;;;;;;;1035.60;288.00;;;5.50;99.90;;;;;;5991371;23;20430;-79
2022/01/19 03:47:42;;;;;;;751.87;203.23;;;5.50;99.90;;;;;;6088854;23;20484;-79
2022/01/19 03:50:11;;;;;;;1301.87;314.73;;;5.40;99.90;;;;;;6134721;23;20409;-79
2022/01/19 03:52:40;;;;;;;1246.47;314.53;;;5.50;99.90;;;;;;6110287;23;20417;-81
2022/01/19 03:55:11;;;;;;;647.30;188.97;;;5.40;99.90;;;;;;6134530;23;20422;-79
2022/01/19 03:57:40;;;;;;;1662.77;410.23;;;5.30;99.90;;;;;;6110019;23;20445;-79
2022/01/19 04:00:11;;;;;;;1889.10;631.37;;;5.30;99.90;;;;;;6134333;23;20468;-79
2022/01/19 04:02:44;;;;;;;1536.07;397.13;;;5.30;99.90;;;;;;6134274;23;20408;-79
2022/01/19 04:05:19;;;;;;;1964.83;486.63;;;5.20;99.90;;;;;;6134258;23;20433;-79
2022/01/19 04:07:48;;;;;;;1879.20;466.17;;;5.20;99.90;;;;;;6144675;23;20385;-80
2022/01/19 04:10:18;;;;;;;1751.80;430.13;;;5.20;99.90;;;;;;6110337;23;20420;-79
2022/01/19 04:12:53;;;;;;;1622.23;430.50;;;5.20;99.90;;;;;;6110225;23;20453;-79
2022/01/19 04:15:22;;;;;;;1876.93;488.00;;;5.10;99.90;;;;;;6108572;23;20859;-79
2022/01/19 04:17:53;;;;;;;1922.90;468.60;;;5.10;99.90;;;;;;6199105;23;20426;-79
2022/01/19 04:20:26;;;;;;;1999.90;462.73;;;5.00;99.90;;;;;;6224219;23;20410;-79
2022/01/19 04:22:59;;;;;;;1999.90;881.17;;;5.00;99.90;;;;;;6223985;23;20418;-79
2022/01/19 04:25:29;;;;;;;1999.90;535.50;;;5.00;99.90;;;;;;6225300;23;20440;-79
2022/01/19 04:27:57;;;;;;;1999.90;492.87;;;4.90;99.90;;;;;;6225669;23;20413;-79
2022/01/19 04:30:28;;;;;;;1999.90;505.67;;;4.90;99.90;;;;;;6224619;23;20424;-79
2022/01/19 04:33:07;;;;;;;1999.90;851.67;;;4.90;99.90;;;;;;6224568;23;20410;-79
2022/01/19 04:35:50;;;;;;;1999.90;999.90;;;4.80;99.90;;;;;;6224522;23;20445;-79
2022/01/19 04:44:39;;;;;;;1999.90;999.90;;;4.70;99.90;;;;;;6225366;23;20484;-79
2022/01/19 04:47:59;;;;;;;1999.90;999.90;;;4.60;99.90;;;;;;6224264;23;20522;-79
2022/01/19 05:01:46;;;;;;;1999.90;999.90;;;4.40;99.90;;;;;;6224467;23;20437;-79
2022/01/19 05:04:34;;;;;;;1999.90;756.37;;;4.40;99.90;;;;;;6225336;23;20418;-79
2022/01/19 05:07:17;;;;;;;1999.90;999.90;;;4.30;99.90;;;;;;6224840;23;20528;-79
2022/01/19 05:10:01;;;;;;;1999.90;537.30;;;4.30;99.90;;;;;;6224810;23;20413;-81
2022/01/19 05:15:27;;;;;;;1999.90;999.90;;;4.20;99.90;;;;;;6173805;23;20445;-80
2022/01/19 05:17:56;;;;;;;1999.90;999.90;;;4.10;99.90;;;;;;6225174;23;20453;-79
2022/01/19 05:20:34;;;;;;;1999.90;999.90;;;4.10;99.90;;;;;;6224545;23;20413;-79
2022/01/19 05:23:19;;;;;;;;;;;;;;;;;;;;;
2022/01/19 05:25:57;;;;;;;1999.90;488.50;;;4.10;99.90;;;;;;6220131;23;20906;-79
2022/01/19 05:28:46;;;;;;;;;;;;;;;;;;;;;
2022/01/19 05:32:07;;;;;;;1999.90;614.43;;;4.00;99.90;;;;;;6205464;23;20977;-79
2022/01/19 05:34:39;;;;;;;1999.90;416.67;;;4.00;99.90;;;;;;6224596;23;20418;-79
2022/01/19 05:37:17;;;;;;;1999.90;999.90;;;4.00;99.90;;;;;;6226965;23;20467;-79
2022/01/19 05:40:07;;;;;;;1999.90;780.73;;;3.90;99.90;;;;;;6227142;23;20977;-79
2022/01/19 05:42:46;;;;;;;1999.90;999.90;;;3.90;99.90;;;;;;6226415;23;20434;-80
2022/01/19 05:45:15;;;;;;;1999.90;873.87;;;3.90;99.90;;;;;;6227123;23;20438;-80
2022/01/19 05:47:45;;;;;;;1999.90;541.87;;;3.90;99.90;;;;;;6227071;23;20428;-79
2022/01/19 05:50:17;;;;;;;1999.90;422.13;;;3.90;99.90;;;;;;6226870;23;20410;-79
2022/01/19 05:53:08;;;;;;;1999.90;724.60;;;3.90;99.90;;;;;;6226254;23;20415;-79
2022/01/19 05:55:44;;;;;;;1999.90;585.17;;;3.90;99.90;;;;;;6226383;23;20430;-80
2022/01/19 05:58:15;;;;;;;1999.90;593.83;;;3.90;99.90;;;;;;6226847;23;20419;-79
2022/01/19 06:00:46;;;;;;;1999.90;726.80;;;3.90;99.90;;;;;;6227081;23;20477;-79
2022/01/19 06:03:18;;;;;;;1999.90;682.33;;;3.90;99.90;;;;;;6226848;23;20470;-79
2022/01/19 06:06:04;;;;;;;1999.90;891.83;;;3.90;99.90;;;;;;6226034;23;20469;-79
2022/01/19 06:09:10;;;;;;;1999.90;583.83;;;3.90;99.90;;;;;;6226003;23;20410;-79
2022/01/19 06:11:52;;;;;;;1999.90;615.60;;;4.00;99.90;;;;;;6237147;23;20524;-80
2022/01/19 06:14:28;;;;;;;1999.90;778.50;;;3.90;99.90;;;;;;6225960;23;20411;-79
2022/01/19 06:16:58;;;;;;;1999.90;743.40;;;3.90;99.90;;;;;;6225506;23;20434;-79
2022/01/19 06:19:50;;;;;;;1999.90;734.23;;;3.90;99.90;;;;;;6226069;23;20442;-79
2022/01/19 06:22:58;;;;;;;;;;;;;;;;;;;;;
2022/01/19 06:26:04;;;;;;;1999.90;831.50;;;4.00;99.90;;;;;;6226134;23;20440;-79
2022/01/19 06:29:21;;;;;;;1999.90;693.13;;;4.00;99.90;;;;;;6020516;23;20448;-79
2022/01/19 06:32:01;;;;;;;1999.90;682.60;;;4.00;99.90;;;;;;6145951;23;20425;-79
2022/01/19 06:38:29;;;;;;;1999.90;580.23;;;4.00;99.90;;;;;;6031161;23;20535;-78
2022/01/19 06:41:49;;;;;;;1999.90;824.03;;;4.00;99.90;;;;;;6088114;23;20432;-79
2022/01/19 06:44:29;;;;;;;;;;;;;;;;;;;;;
2022/01/19 06:51:25;;;;;;;;;;;;;;;;;;;;;
2022/01/19 07:06:01;;;;;;;1999.90;643.10;;;4.10;99.90;;;;;;5951455;24;20479;-80
2022/01/19 07:08:37;;;;;;;1999.90;591.53;;;4.20;99.90;;;;;;6003770;23;20426;-79
2022/01/19 07:11:10;;;;;;;1999.90;731.90;;;4.10;99.90;;;;;;6053899;23;20424;-79
2022/01/19 07:13:39;;;;;;;1999.90;780.47;;;4.20;99.90;;;;;;6183960;23;20414;-79
2022/01/19 07:16:07;;;;;;;1999.90;738.13;;;4.20;99.90;;;;;;6226291;23;20528;-78
2022/01/19 07:18:41;;;;;;;1999.90;707.77;;;4.20;99.90;;;;;;6226460;23;20441;-78
2022/01/19 07:21:10;;;;;;;1999.90;703.97;;;4.20;99.90;;;;;;6225883;23;20843;-79
2022/01/19 07:23:48;;;;;;;1999.90;749.30;;;4.20;99.90;;;;;;6226543;23;20510;-79
2022/01/19 07:26:32;;;;;;;1999.90;680.03;;;4.30;99.90;;;;;;6226920;23;20445;-79
2022/01/19 07:29:02;;;;;;;1999.90;655.13;;;4.30;99.90;;;;;;6226713;23;20469;-79
2022/01/19 07:31:31;;;;;;;1999.90;753.23;;;4.30;99.90;;;;;;6227092;23;20417;-79
2022/01/19 07:34:05;;;;;;;1999.90;746.63;;;4.30;99.90;;;;;;6226420;23;20440;-79
2022/01/19 07:36:35;;;;;;;1999.90;711.07;;;4.40;99.90;;;;;;6227160;23;20442;-79
2022/01/19 07:39:04;;;;;;;1999.90;603.03;;;4.40;99.90;;;;;;6226327;23;20459;-79
2022/01/19 07:41:34;;;;;;;1999.90;686.97;;;4.40;99.90;;;;;;6226486;23;20425;-79
2022/01/19 07:44:22;;;;;;;1999.90;645.07;;;4.40;99.90;;;;;;6227143;23;20403;-81
2022/01/19 07:47:09;;;;;;;1999.90;669.60;;;4.50;99.90;;;;;;6236790;23;20518;-79
2022/01/19 07:50:16;;;;;;;1999.90;491.40;;;4.50;99.90;;;;;;6145986;23;20414;-79
2022/01/19 07:53:09;;;;;;;1999.90;683.73;;;4.50;99.90;;;;;;6111437;23;20552;-79
2022/01/19 07:55:45;;;;;;;1999.90;578.13;;;4.50;99.90;;;;;;6190240;23;20440;-79
2022/01/19 07:58:38;;;;;;;1999.90;535.47;;;4.50;99.90;;;;;;6226836;23;20411;-80
2022/01/19 08:01:10;;;;;;;1999.90;648.60;;;4.60;99.90;;;;;;6227057;23;20442;-79
2022/01/19 08:03:49;;;;;;;1999.90;639.60;;;4.60;99.90;;;;;;6227287;23;20437;-79
2022/01/19 08:06:28;;;;;;;1999.90;605.60;;;4.60;99.90;;;;;;6226600;23;20438;-79
2022/01/19 08:08:59;;;;;;;1999.90;578.80;;;4.60;99.90;;;;;;6227164;23;20414;-79
2022/01/19 08:11:31;;;;;;;1625.90;427.40;;;4.70;99.90;;;;;;6226475;23;20477;-79
2022/01/19 08:14:38;;;;;;;1999.90;876.87;;;4.70;99.90;;;;;;6228555;23;20482;-79
2022/01/19 08:17:06;;;;;;;1999.90;612.80;;;4.70;99.90;;;;;;6226464;23;20437;-79
2022/01/19 08:19:41;;;;;;;1999.90;602.20;;;4.70;99.90;;;;;;6226114;23;20422;-79
2022/01/19 08:22:10;;;;;;;1999.90;591.43;;;4.70;99.90;;;;;;6225477;23;20414;-79
2022/01/19 08:24:58;;;;;;;1979.40;551.63;;;4.80;99.90;;;;;;6224971;23;20405;-79
2022/01/19 08:27:28;;;;;;;1999.90;604.90;;;4.80;99.90;;;;;;6224679;23;20414;-79
2022/01/19 08:30:02;;;;;;;1999.90;515.47;;;4.80;99.90;;;;;;6222948;23;20916;-79
2022/01/19 08:32:31;;;;;;;1518.60;425.80;;;4.80;99.90;;;;;;6224550;23;20407;-79
2022/01/19 08:35:20;;;;;;;1999.90;512.67;;;4.80;99.90;;;;;;6223347;23;20442;-79
2022/01/19 08:38:14;;;;;;;1999.90;464.20;;;4.80;99.90;;;;;;6225023;23;20417;-79
2022/01/19 08:40:50;;;;;;;1999.90;459.63;;;4.80;99.90;;;;;;6224490;23;20406;-78
2022/01/19 08:43:26;;;;;;;1999.90;857.60;;;4.80;99.90;;;;;;6223844;23;20492;-79
2022/01/19 08:45:59;;;;;;;1999.90;999.90;;;4.80;99.90;;;;;;6225217;23;20460;-79
2022/01/19 08:48:43;;;;;;;1999.90;617.37;;;4.80;99.90;;;;;;6226834;23;20433;-79
2022/01/19 08:51:23;;;;;;;1999.90;440.00;;;4.80;99.90;;;;;;6226638;23;20414;-79
2022/01/19 08:53:56;;;;;;;1999.90;472.30;;;4.80;99.90;;;;;;6226284;23;20431;-79
2022/01/19 08:56:33;;;;;;;1999.90;611.57;;;4.80;99.90;;;;;;6225482;23;20442;-79
2022/01/19 08:59:01;;;;;;;1999.90;999.90;;;4.80;99.90;;;;;;6227657;23;20403;-79
2022/01/19 09:01:31;;;;;;;1999.90;397.47;;;4.80;99.90;;;;;;6227081;23;20857;-79
2022/01/19 09:04:00;;;;;;;1999.90;608.47;;;4.90;99.90;;;;;;6226805;23;20434;-79
2022/01/19 09:06:28;;;;;;;1918.07;579.50;;;4.80;99.90;;;;;;6227449;23;20604;-79
2022/01/19 09:08:58;;;;;;;1999.90;373.60;;;4.80;99.90;;;;;;6226014;23;20418;-80
2022/01/19 09:11:27;;;;;;;1853.20;603.00;;;4.80;99.90;;;;;;6227975;23;20501;-79
2022/01/19 09:13:57;;;;;;;1999.90;388.67;;;4.80;99.90;;;;;;6227575;23;20449;-79
2022/01/19 09:16:26;;;;;;;1888.23;542.43;;;4.80;99.90;;;;;;6226694;23;20488;-79
2022/01/19 09:19:06;;;;;;;1999.90;999.90;;;4.80;99.90;;;;;;6226639;23;20445;-79
2022/01/19 09:21:36;;;;;;;1999.90;559.33;;;4.80;99.90;;;;;;6226832;23;20414;-79
2022/01/19 09:24:10;;;;;;;1999.90;999.90;;;4.70;99.90;;;;;;6237913;23;20445;-79
2022/01/19 09:26:45;;;;;;;1738.33;291.50;;;4.70;99.90;;;;;;6226491;23;20430;-79
2022/01/19 09:29:17;;;;;;;1929.67;578.47;;;4.70;99.90;;;;;;6227599;23;20758;-79
2022/01/19 09:31:45;;;;;;;1999.90;549.50;;;4.70;99.90;;;;;;6239518;23;20477;-79
2022/01/19 09:34:20;;;;;;;1840.43;539.80;;;4.70;99.90;;;;;;6239395;23;20399;-79
2022/01/19 09:37:02;;;;;;;1999.90;999.90;;;4.70;99.90;;;;;;6226762;23;20477;-79
2022/01/19 09:39:31;;;;;;;1999.90;999.90;;;4.70;99.90;;;;;;6237426;23;20482;-80
2022/01/19 09:42:07;;;;;;;1927.97;581.23;;;4.60;99.90;;;;;;6227482;23;20812;-79
2022/01/19 09:44:39;;;;;;;1903.17;538.40;;;4.60;99.90;;;;;;6226720;23;20999;-81
2022/01/19 09:47:08;;;;;;;1999.90;999.90;;;4.60;99.90;;;;;;6229072;23;20496;-79
2022/01/19 09:49:38;;;;;;;1999.90;640.90;;;4.60;99.90;;;;;;6226332;23;20414;-79
2022/01/19 09:52:09;;;;;;;1828.07;541.47;;;4.60;99.90;;;;;;6228996;23;20403;-79
2022/01/19 09:54:39;;;;;;;1999.90;999.90;;;4.60;99.90;;;;;;6226908;23;20750;-79
2022/01/19 09:57:11;;;;;;;1980.13;530.30;;;4.60;99.90;;;;;;6237773;23;20448;-79
2022/01/19 09:59:39;;;;;;;1999.90;999.90;;;4.60;99.90;;;;;;6227479;23;20731;-79
2022/01/19 10:02:10;;;;;;;1646.27;493.93;;;4.60;99.90;;;;;;6237804;23;20477;-79
2022/01/19 10:04:42;;;;;;;1999.90;999.90;;;4.60;99.90;;;;;;6238327;23;20414;-79
2022/01/19 10:07:17;;;;;;;1999.90;999.90;;;4.60;99.90;;;;;;6236838;23;20504;-79
2022/01/19 10:09:56;;;;;;;1999.90;999.90;;;4.60;99.90;;;;;;6225711;23;20481;-79
2022/01/19 10:18:14;;;;;;;1999.90;999.90;;;4.50;99.90;;;;;;6234280;23;20930;-80
2022/01/19 10:20:44;;;;;;;1999.90;999.90;;;4.50;99.90;;;;;;6223232;23;20399;-79
2022/01/19 10:23:36;;;;;;;1999.90;999.90;;;4.50;99.90;;;;;;6225216;23;20925;-79
2022/01/19 10:26:08;;;;;;;1999.90;999.90;;;4.60;99.90;;;;;;6224515;23;20959;-79
2022/01/19 10:28:59;;;;;;;1999.90;999.90;;;4.50;99.90;;;;;;6225851;23;20847;-79
2022/01/19 10:31:28;;;;;;;1999.90;999.90;;;4.50;99.90;;;;;;6224511;23;20720;-79
2022/01/19 10:34:15;;;;;;;1999.90;999.90;;;4.50;99.90;;;;;;6224611;23;20399;-79
2022/01/19 10:36:49;;;;;;;1999.90;999.90;;;4.50;99.90;;;;;;6235003;23;20430;-80
2022/01/19 10:39:19;;;;;;;1999.90;553.37;;;4.50;99.90;;;;;;6224299;23;20465;-78
2022/01/19 10:41:58;;;;;;;1999.90;774.40;;;4.50;99.90;;;;;;6223199;23;20419;-78
2022/01/19 10:44:33;;;;;;;1999.90;999.90;;;4.50;99.90;;;;;;6222973;23;20469;-79
2022/01/19 10:47:44;;;;;;;1999.90;999.90;;;4.50;99.90;;;;;;6223060;23;20465;-78
2022/01/19 10:50:14;;;;;;;1999.90;999.90;;;4.60;99.90;;;;;;6234798;23;20414;-78
2022/01/19 10:52:45;;;;;;;1986.90;369.40;;;4.60;99.90;;;;;;6223644;23;20422;-78
2022/01/19 10:55:26;;;;;;;1999.90;999.90;;;4.60;99.90;;;;;;6223725;23;20426;-79
2022/01/19 10:57:59;;;;;;;1999.90;999.90;;;4.60;99.90;;;;;;6234905;23;20421;-79
2022/01/19 11:00:30;;;;;;;1999.90;583.03;;;4.60;99.90;;;;;;6224251;23;20849;-79
2022/01/19 11:03:14;;;;;;;1873.97;553.57;;;4.60;99.90;;;;;;6222095;23;20417;-79
2022/01/19 11:05:45;;;;;;;1999.90;999.90;;;4.60;99.90;;;;;;6222612;23;20500;-78
2022/01/19 11:08:27;;;;;;;1978.37;557.03;;;4.70;99.90;;;;;;6222062;23;20461;-78
2022/01/19 11:11:01;;;;;;;1999.90;999.90;;;4.70;99.90;;;;;;6222577;23;20456;-78
2022/01/19 11:13:32;;;;;;;1818.60;546.33;;;4.70;99.90;;;;;;6222509;23;20766;-80
2022/01/19 11:16:03;;;;;;;1999.90;999.90;;;4.70;99.90;;;;;;6223257;23;20489;-78
2022/01/19 11:18:32;;;;;;;1895.40;593.87;;;4.80;99.90;;;;;;6223309;23;20413;-78
2022/01/19 11:21:05;;;;;;;1983.00;430.30;;;4.80;99.90;;;;;;6223231;23;20417;-79
2022/01/19 11:23:48;;;;;;;1999.90;999.90;;;4.80;99.90;;;;;;6233328;23;20416;-78
2022/01/19 11:26:21;;;;;;;1907.87;558.93;;;4.80;99.90;;;;;;6223226;23;20465;-79
2022/01/19 11:28:52;;;;;;;1547.17;524.63;;;4.90;99.90;;;;;;6223264;23;20489;-79
2022/01/19 11:31:37;;;;;;;1969.57;614.13;;;4.90;99.90;;;;;;6223264;23;20493;-79
2022/01/19 11:34:06;;;;;;;1812.90;578.97;;;4.90;99.90;;;;;;6233175;23;20383;-79
2022/01/19 11:36:42;;;;;;;1999.90;611.40;;;4.90;99.90;;;;;;6226933;23;20437;-79
2022/01/19 11:39:14;;;;;;;1833.80;571.13;;;5.00;99.90;;;;;;6222956;23;20411;-78
2022/01/19 11:41:50;;;;;;;1999.90;999.90;;;5.00;99.90;;;;;;6224108;23;20418;-79
2022/01/19 11:44:22;;;;;;;1963.67;788.83;;;5.00;99.90;;;;;;6225110;23;20438;-79
2022/01/19 11:46:53;;;;;;;1948.43;388.13;;;5.00;99.90;;;;;;6223605;23;20465;-78
2022/01/19 11:49:54;;;;;;;1894.53;553.13;;;5.00;99.90;;;;;;6224378;23;20425;-79
2022/01/19 11:52:27;;;;;;;1999.90;999.90;;;5.00;99.90;;;;;;6222815;23;20422;-78
2022/01/19 11:55:14;;;;;;;1999.90;999.90;;;5.00;99.90;;;;;;6223587;23;20478;-80
2022/01/19 11:57:44;;;;;;;1999.90;999.90;;;5.10;99.90;;;;;;6224163;23;20402;-78
2022/01/19 12:00:19;;;;;;;1947.47;436.87;;;5.10;99.90;;;;;;6224730;23;20418;-79
2022/01/19 12:02:59;;;;;;;1570.00;535.90;;;5.10;99.90;;;;;;6236336;23;20410;-79
2022/01/19 12:05:50;;;;;;;1999.90;999.90;;;5.10;99.90;;;;;;6222865;23;20533;-79
2022/01/19 12:08:31;;;;;;;1970.40;578.93;;;5.10;99.90;;;;;;6225814;23;20391;-78
2022/01/19 12:11:14;;;;;;;1900.80;586.90;;;5.10;99.90;;;;;;6235105;23;20391;-79
2022/01/19 12:16:50;;;;;;;1992.33;568.77;;;5.20;99.90;;;;;;6222617;23;20445;-78
2022/01/19 12:19:23;;;;;;;1999.90;637.00;;;5.20;99.90;;;;;;6222029;23;20453;-79
2022/01/19 12:21:55;;;;;;;1394.57;221.13;;;5.20;99.90;;;;;;6222102;23;20494;-78
2022/01/19 12:24:37;;;;;;;1816.00;596.60;;;5.20;99.90;;;;;;6222342;23;20921;-78
2022/01/19 12:27:10;;;;;;;1748.57;552.10;;;5.20;99.90;;;;;;6221526;23;20496;-79
2022/01/19 12:29:43;;;;;;;1736.33;370.50;;;5.20;99.90;;;;;;6233064;23;20390;-78
2022/01/19 12:32:36;;;;;;;1999.90;610.97;;;5.20;99.90;;;;;;6221818;23;20434;-78
2022/01/19 12:35:17;;;;;;;1775.67;550.97;;;5.20;99.90;;;;;;6223583;23;20438;-80
2022/01/19 12:37:50;;;;;;;1999.90;604.90;;;5.20;99.90;;;;;;6223830;23;20428;-79
2022/01/19 12:40:41;;;;;;;1997.90;432.40;;;5.20;99.90;;;;;;6222589;23;20417;-79
2022/01/19 12:43:14;;;;;;;1999.90;999.90;;;5.20;99.90;;;;;;6225721;23;20414;-79
2022/01/19 12:45:50;;;;;;;1889.67;588.57;;;5.20;99.90;;;;;;6222224;23;20446;-79
2022/01/19 12:48:37;;;;;;;1948.40;565.03;;;5.20;99.90;;;;;;6222189;23;20406;-80
2022/01/19 12:51:06;;;;;;;1908.77;457.60;;;5.20;99.90;;;;;;6223838;23;20413;-79
2022/01/19 12:53:35;;;;;;;1617.30;400.53;;;5.20;99.90;;;;;;6223898;23;20414;-79
2022/01/19 12:56:06;;;;;;;1909.70;428.10;;;5.30;99.90;;;;;;6223698;23;20438;-79
2022/01/19 12:58:43;;;;;;;1809.47;578.43;;;5.20;99.90;;;;;;6223453;23;20414;-79
2022/01/19 13:01:13;;;;;;;1786.50;396.40;;;5.20;99.90;;;;;;6223362;23;20445;-79
2022/01/19 13:03:45;;;;;;;1999.90;655.20;;;5.30;99.90;;;;;;6226645;23;20442;-80
2022/01/19 13:06:18;;;;;;;1775.40;378.20;;;5.30;99.90;;;;;;6223404;23;20446;-79
2022/01/19 13:08:56;;;;;;;1859.43;553.30;;;5.30;99.90;;;;;;6224358;23;20469;-79
2022/01/19 13:11:33;;;;;;;1208.47;312.73;;;5.30;99.90;;;;;;6234894;23;20441;-79
2022/01/19 13:14:06;;;;;;;1884.50;498.67;;;5.30;99.90;;;;;;6234587;23;20407;-79
2022/01/19 13:16:41;;;;;;;1942.07;630.10;;;5.30;99.90;;;;;;6222108;23;20435;-79
2022/01/19 13:19:15;;;;;;;1669.50;405.23;;;5.30;99.90;;;;;;6235836;23;20386;-79
2022/01/19 13:21:46;;;;;;;1987.50;632.67;;;5.40;99.90;;;;;;6223701;23;20453;-78
2022/01/19 13:24:19;;;;;;;1669.63;433.73;;;5.40;99.90;;;;;;6223825;23;20410;-79
2022/01/19 13:26:50;;;;;;;1686.23;438.77;;;5.30;99.90;;;;;;6223826;23;20453;-79
2022/01/19 13:29:36;;;;;;;1757.90;448.20;;;5.40;99.90;;;;;;6222826;23;20407;-79
2022/01/19 13:32:10;;;;;;;1999.90;663.07;;;5.40;99.90;;;;;;6221112;23;20445;-78
2022/01/19 13:34:56;;;;;;;1770.90;422.10;;;5.40;99.90;;;;;;6235255;23;20441;-79
2022/01/19 13:37:30;;;;;;;1897.47;426.63;;;5.40;99.90;;;;;;6222878;23;20517;-79
2022/01/19 13:40:05;;;;;;;1668.37;380.23;;;5.40;99.90;;;;;;6224068;23;20410;-78
2022/01/19 13:42:41;;;;;;;1722.93;424.57;;;5.40;99.90;;;;;;6222872;23;20425;-79
2022/01/19 13:45:19;;;;;;;1686.63;440.57;;;5.40;99.90;;;;;;6222892;23;20430;-79
2022/01/19 13:47:54;;;;;;;1999.90;584.37;;;5.40;99.90;;;;;;6222168;23;20430;-79
2022/01/19 13:50:23;;;;;;;1361.37;347.80;;;5.40;99.90;;;;;;6221928;23;20529;-79
2022/01/19 13:52:51;;;;;;;1939.17;650.77;;;5.40;99.90;;;;;;6222471;23;20419;-79
2022/01/19 13:55:24;;;;;;;1581.47;398.47;;;5.40;99.90;;;;;;6222979;23;20458;-79
2022/01/19 13:58:03;;;;;;;1656.17;349.27;;;5.40;99.90;;;;;;6224676;23;20411;-79
2022/01/19 14:00:33;;;;;;;1714.23;418.93;;;5.40;99.90;;;;;;6224976;23;20422;-79
2022/01/19 14:03:04;;;;;;;1564.73;353.47;;;5.40;99.90;;;;;;6227044;23;20772;-79
2022/01/19 14:05:53;;;;;;;1743.30;426.57;;;5.40;99.90;;;;;;6224579;23;20492;-79
2022/01/19 14:08:28;;;;;;;1540.10;379.07;;;5.40;99.90;;;;;;6222258;23;20882;-80
2022/01/19 14:10:57;;;;;;;1853.10;371.00;;;5.40;99.90;;;;;;6223080;23;20414;-80
2022/01/19 14:13:31;;;;;;;1738.23;405.30;;;5.40;99.90;;;;;;6222462;23;20418;-81
2022/01/19 14:16:26;;;;;;;1713.70;436.63;;;5.40;99.90;;;;;;6221942;23;20430;-80
2022/01/19 14:19:08;;;;;;;1999.90;406.03;;;5.40;99.90;;;;;;6195279;23;20422;-80
2022/01/19 14:21:53;;;;;;;1904.67;576.37;;;5.40;99.90;;;;;;6234204;23;20494;-81
2022/01/19 14:24:22;;;;;;;1405.00;271.47;;;5.30;99.90;;;;;;6221781;23;20415;-81
2022/01/19 14:26:53;;;;;;;1141.53;327.03;;;5.30;99.90;;;;;;6222250;23;20466;-80
2022/01/19 14:29:24;;;;;;;901.37;253.73;;;5.30;99.90;;;;;;6222480;23;20419;-80
2022/01/19 14:31:57;;;;;;;1775.07;367.43;;;5.30;99.90;;;;;;6221165;23;20422;-80
2022/01/19 14:34:40;;;;;;;1951.63;429.40;;;5.30;99.90;;;;;;6221162;23;20406;-81
2022/01/19 14:37:13;;;;;;;1999.90;651.97;;;5.30;99.90;;;;;;6221326;23;20446;-81
2022/01/19 14:39:51;;;;;;;1371.53;305.83;;;5.30;99.90;;;;;;6221103;23;20403;-80
2022/01/19 14:42:29;;;;;;;1636.77;589.00;;;5.30;99.90;;;;;;6221955;23;20406;-80
2022/01/19 14:45:19;;;;;;;752.00;239.40;;;5.30;99.90;;;;;;6223449;23;20401;-80
2022/01/19 14:47:49;;;;;;;1999.90;504.53;;;5.30;99.90;;;;;;6223713;23;20417;-80
2022/01/19 14:50:23;;;;;;;1937.73;583.70;;;5.20;99.90;;;;;;6235373;23;20398;-80
2022/01/19 14:52:55;;;;;;;788.77;237.43;;;5.20;99.90;;;;;;6224054;23;20512;-80
2022/01/19 14:55:25;;;;;;;1434.07;351.47;;;5.20;99.90;;;;;;6224327;23;20476;-80
2022/01/19 14:57:53;;;;;;;1407.03;319.53;;;5.20;99.90;;;;;;6223359;23;20438;-80